createdAt,value
2023-03-05T00:01:33.898Z,6.20
2023-03-05T00:04:06.077Z,6.85
2023-03-05T00:06:35.238Z,5.10
2023-03-05T00:09:04.460Z,6.20
2023-03-05T00:11:33.781Z,3.97
2023-03-05T00:14:04.701Z,5.30
2023-03-05T00:16:33.689Z,4.82
2023-03-05T00:19:03.229Z,5.40
2023-03-05T00:21:34.558Z,5.50
2023-03-05T00:24:05.434Z,6.55
2023-03-05T00:26:36.659Z,6.18
2023-03-05T00:29:06.214Z,5.10
2023-03-05T00:31:37.222Z,4.68
2023-03-05T00:34:10.283Z,4.47
2023-03-05T00:36:42.040Z,4.60
2023-03-05T00:39:10.422Z,6.05
2023-03-05T00:41:38.961Z,4.32
2023-03-05T00:44:07.796Z,4.28
2023-03-05T00:46:36.242Z,4.95
2023-03-05T00:49:06.055Z,4.28
2023-03-05T00:51:34.974Z,5.72
2023-03-05T00:54:03.189Z,4.90
2023-03-05T00:56:31.385Z,4.78
2023-03-05T00:58:59.465Z,5.40
2023-03-05T01:01:28.501Z,6.45
2023-03-05T01:03:58.274Z,7.45
2023-03-05T01:06:29.407Z,6.85
2023-03-05T01:08:59.197Z,5.32
2023-03-05T01:11:27.334Z,6.93
2023-03-05T01:13:55.468Z,5.82
2023-03-05T01:16:23.715Z,5.63
2023-03-05T01:18:51.882Z,5.32
2023-03-05T01:21:20.258Z,6.22
2023-03-05T01:23:49.830Z,7.20
2023-03-05T01:26:18.027Z,5.57
2023-03-05T01:28:46.229Z,5.70
2023-03-05T01:31:14.733Z,5.68
2023-03-05T01:33:42.832Z,6.25
2023-03-05T01:36:17.027Z,6.70
2023-03-05T01:38:46.861Z,7.75
2023-03-05T01:41:19.113Z,7.57
2023-03-05T01:43:49.024Z,6.25
2023-03-05T01:46:28.662Z,6.65
2023-03-05T01:49:06.202Z,7.20
2023-03-05T01:51:41.459Z,7.63
2023-03-05T01:54:13.032Z,7.15
2023-03-05T01:56:45.023Z,6.93
2023-03-05T01:59:15.465Z,9.18
2023-03-05T02:01:49.208Z,8.27
2023-03-05T02:04:20.518Z,7.45
2023-03-05T02:06:49.914Z,8.25
2023-03-05T02:09:18.209Z,8.38
2023-03-05T02:11:47.966Z,8.63
2023-03-05T02:14:16.214Z,7.70
2023-03-05T02:16:44.693Z,7.50
2023-03-05T02:19:14.095Z,6.38
2023-03-05T02:21:47.478Z,6.68
2023-03-05T02:24:19.162Z,8.43
2023-03-05T02:26:48.769Z,7.95
2023-03-05T02:29:21.110Z,7.85
2023-03-05T02:31:49.367Z,7.95
2023-03-05T02:34:17.558Z,9.23
2023-03-05T02:36:46.953Z,9.73
2023-03-05T02:39:15.229Z,8.18
2023-03-05T02:41:44.738Z,7.93
2023-03-05T02:44:12.965Z,8.18
2023-03-05T02:46:41.099Z,8.73
2023-03-05T02:49:09.278Z,8.82
2023-03-05T02:51:37.388Z,8.05
2023-03-05T02:54:07.066Z,9.35
2023-03-05T02:56:35.173Z,7.97
2023-03-05T02:59:03.255Z,8.95
2023-03-05T03:01:31.629Z,10.07
2023-03-05T03:03:59.914Z,8.90
2023-03-05T03:06:28.157Z,9.90
2023-03-05T03:08:56.188Z,8.95
2023-03-05T03:11:25.721Z,10.15
2023-03-05T03:13:53.764Z,9.77
2023-03-05T03:16:22.277Z,9.90
2023-03-05T03:18:50.749Z,10.60
2023-03-05T03:21:21.237Z,10.27
2023-03-05T03:23:49.466Z,9.02
2023-03-05T03:26:18.132Z,8.60
2023-03-05T03:28:47.785Z,8.52
2023-03-05T03:31:16.681Z,9.82
2023-03-05T03:33:45.335Z,9.57
2023-03-05T03:36:14.250Z,11.02
2023-03-05T03:38:42.562Z,10.35
2023-03-05T03:41:10.860Z,11.73
2023-03-05T03:43:40.021Z,9.85
2023-03-05T03:46:09.717Z,11.77
2023-03-05T03:48:38.153Z,11.68
2023-03-05T03:51:08.645Z,11.65
2023-03-05T03:53:36.953Z,11.07
2023-03-05T03:56:06.000Z,10.77
2023-03-05T03:58:34.183Z,10.50
2023-03-05T04:01:02.273Z,10.98
2023-03-05T04:03:31.844Z,11.63
2023-03-05T04:06:00.004Z,10.25
2023-03-05T04:08:28.243Z,11.48
2023-03-05T04:10:56.461Z,10.02
2023-03-05T04:13:24.546Z,11.15
2023-03-05T04:15:52.742Z,9.88
2023-03-05T04:18:20.897Z,8.05
2023-03-05T04:20:50.689Z,8.85
2023-03-05T04:23:19.255Z,9.80
2023-03-05T04:25:47.492Z,9.98
2023-03-05T04:28:15.620Z,8.27
2023-03-05T04:30:43.734Z,12.55
2023-03-05T04:33:11.837Z,11.57
2023-03-05T04:35:39.973Z,11.40
2023-03-05T04:38:09.951Z,10.73
2023-03-05T04:40:38.571Z,13.55
2023-03-05T04:43:07.692Z,11.75
2023-03-05T04:45:35.942Z,10.23
2023-03-05T04:48:04.065Z,10.88
2023-03-05T04:50:32.237Z,10.18
2023-03-05T04:53:00.731Z,10.15
2023-03-05T04:55:30.336Z,11.05
2023-03-05T04:57:59.229Z,10.73
2023-03-05T05:00:27.476Z,13.32
2023-03-05T05:02:55.914Z,9.93
2023-03-05T05:05:26.870Z,10.93
2023-03-05T05:07:57.239Z,10.10
2023-03-05T05:10:31.599Z,10.07
2023-03-05T05:13:00.216Z,10.13
2023-03-05T05:15:28.477Z,10.95
2023-03-05T05:17:56.831Z,8.90
2023-03-05T05:20:25.227Z,10.80
2023-03-05T05:22:53.607Z,10.80
2023-03-05T05:25:21.931Z,11.13
2023-03-05T05:27:54.133Z,11.88
2023-03-05T05:30:22.427Z,11.25
2023-03-05T05:32:50.606Z,12.70
2023-03-05T05:35:19.141Z,10.55
2023-03-05T05:37:47.330Z,10.32
2023-03-05T05:40:16.293Z,10.98
2023-03-05T05:42:45.018Z,10.15
2023-03-05T05:45:14.831Z,11.73
2023-03-05T05:47:42.938Z,9.35
2023-03-05T05:50:13.270Z,10.90
2023-03-05T05:52:41.577Z,10.88
2023-03-05T05:55:11.484Z,10.07
2023-03-05T05:57:39.704Z,11.10
2023-03-05T06:00:12.586Z,9.70
2023-03-05T06:02:45.131Z,11.25
2023-03-05T06:05:15.935Z,9.52
2023-03-05T06:07:44.196Z,11.45
2023-03-05T06:10:13.558Z,9.35
2023-03-05T06:12:41.905Z,10.40
2023-03-05T06:15:11.188Z,9.63
2023-03-05T06:17:40.920Z,11.52
2023-03-05T06:20:10.952Z,9.90
2023-03-05T06:22:40.112Z,11.45
2023-03-05T06:25:11.055Z,10.43
2023-03-05T06:27:39.787Z,9.50
2023-03-05T06:30:10.823Z,12.48
2023-03-05T06:32:39.267Z,10.18
2023-03-05T06:35:10.260Z,11.52
2023-03-05T06:37:38.436Z,10.18
2023-03-05T06:40:08.929Z,10.65
2023-03-05T06:42:37.287Z,10.23
2023-03-05T06:45:06.996Z,11.13
2023-03-05T06:47:35.216Z,11.70
2023-03-05T06:50:03.610Z,10.10
2023-03-05T06:52:33.076Z,8.63
2023-03-05T06:55:01.202Z,9.23
2023-03-05T06:57:29.353Z,9.32
2023-03-05T06:59:57.813Z,9.00
2023-03-05T07:02:26.193Z,9.80
2023-03-05T07:04:54.316Z,9.75
2023-03-05T07:07:22.484Z,9.82
2023-03-05T07:09:53.657Z,8.32
2023-03-05T07:12:21.903Z,9.57
2023-03-05T07:14:50.060Z,9.27
2023-03-05T07:17:19.309Z,8.43
2023-03-05T07:19:47.462Z,9.20
2023-03-05T07:22:16.297Z,7.63
2023-03-05T07:24:44.357Z,9.48
2023-03-05T07:27:13.910Z,8.65
2023-03-05T07:29:41.970Z,11.30
2023-03-05T07:32:10.858Z,9.32
2023-03-05T07:34:39.296Z,8.60
2023-03-05T07:37:07.715Z,8.32
2023-03-05T07:39:35.839Z,8.55
2023-03-05T07:42:04.536Z,8.65
2023-03-05T07:44:34.060Z,9.52
2023-03-05T07:47:02.192Z,9.50
2023-03-05T07:49:30.377Z,12.07
2023-03-05T07:51:58.733Z,9.75
2023-03-05T07:54:26.857Z,9.00
2023-03-05T07:56:56.376Z,9.80
2023-03-05T07:59:24.513Z,10.13
2023-03-05T08:01:54.355Z,9.07
2023-03-05T08:04:22.615Z,9.45
2023-03-05T08:06:51.028Z,8.75
2023-03-05T08:09:19.882Z,12.52
2023-03-05T08:11:47.982Z,10.13
2023-03-05T08:14:16.713Z,10.55
2023-03-05T08:16:47.257Z,10.82
2023-03-05T08:19:17.794Z,8.75
2023-03-05T08:21:47.286Z,13.13
2023-03-05T08:24:16.148Z,10.43
2023-03-05T08:26:44.460Z,12.55
2023-03-05T08:29:12.937Z,11.95
2023-03-05T08:31:41.384Z,10.80
2023-03-05T08:34:09.619Z,10.30
2023-03-05T08:36:39.048Z,10.90
2023-03-05T08:39:08.588Z,9.65
2023-03-05T08:41:37.031Z,9.93
2023-03-05T08:44:05.794Z,12.00
2023-03-05T08:46:34.699Z,10.38
2023-03-05T08:49:03.101Z,11.05
2023-03-05T08:51:31.298Z,9.40
2023-03-05T08:54:01.872Z,9.52
2023-03-05T08:56:31.503Z,11.68
2023-03-05T08:58:59.872Z,9.98
2023-03-05T09:01:28.207Z,9.90
2023-03-05T09:03:56.620Z,10.57
2023-03-05T09:06:24.934Z,11.18
2023-03-05T09:08:53.470Z,12.48
2023-03-05T09:11:23.400Z,10.07
2023-03-05T09:13:51.602Z,12.95
2023-03-05T09:16:21.125Z,9.63
2023-03-05T09:18:49.418Z,10.80
2023-03-05T09:21:19.477Z,6.75
2023-03-05T09:23:48.191Z,8.80
2023-03-05T09:26:19.309Z,8.10
2023-03-05T09:28:49.778Z,5.53
2023-03-05T09:31:18.792Z,5.13
2023-03-05T09:33:48.530Z,3.47
2023-03-05T09:36:21.671Z,4.88
2023-03-05T09:38:50.365Z,5.43
2023-03-05T09:41:31.015Z,5.72
2023-03-05T09:44:19.260Z,3.95
2023-03-05T09:46:55.828Z,3.58
2023-03-05T09:49:48.222Z,2.63
2023-03-05T09:52:31.506Z,3.17
2023-03-05T09:54:59.963Z,3.85
2023-03-05T09:57:40.439Z,2.78
2023-03-05T10:00:39.639Z,3.88
2023-03-05T10:03:17.161Z,2.90
2023-03-05T10:05:57.443Z,3.47
2023-03-05T10:08:39.250Z,2.72
2023-03-05T10:11:20.154Z,2.63
2023-03-05T10:13:48.731Z,2.92
2023-03-05T10:16:50.661Z,3.10
2023-03-05T10:19:46.731Z,3.38
2023-03-05T10:22:22.728Z,2.95
2023-03-05T10:25:19.341Z,2.83
2023-03-05T10:27:54.063Z,3.30
2023-03-05T10:30:41.447Z,3.75
2023-03-05T10:33:29.705Z,3.70
2023-03-05T10:36:35.470Z,2.58
2023-03-05T10:40:00.197Z,2.65
2023-03-05T10:42:42.545Z,2.25
2023-03-05T10:45:22.629Z,2.63
2023-03-05T10:47:56.765Z,2.50
2023-03-05T10:50:29.751Z,2.72
2023-03-05T10:53:19.550Z,3.92
2023-03-05T10:55:48.116Z,2.45
2023-03-05T10:58:18.562Z,2.55
2023-03-05T11:01:02.817Z,1.42
2023-03-05T11:03:55.197Z,2.08
2023-03-05T11:06:36.646Z,2.20
2023-03-05T11:09:28.141Z,2.78
2023-03-05T11:12:17.124Z,2.85
2023-03-05T11:14:48.968Z,2.10
2023-03-05T11:17:32.680Z,2.15
2023-03-05T11:20:40.008Z,2.08
2023-03-05T11:23:15.485Z,2.08
2023-03-05T11:25:58.345Z,2.03
2023-03-05T11:32:37.689Z,1.80
2023-03-05T11:35:33.020Z,1.58
2023-03-05T11:38:03.854Z,2.22
2023-03-05T11:40:37.487Z,1.90
2023-03-05T11:43:06.608Z,1.17
2023-03-05T11:45:35.951Z,1.08
2023-03-05T11:48:14.012Z,1.08
2023-03-05T11:50:49.800Z,1.25
2023-03-05T11:53:28.346Z,1.15
2023-03-05T11:56:06.355Z,0.70
2023-03-05T11:58:42.277Z,1.02
2023-03-05T12:01:18.369Z,0.85
2023-03-05T12:03:47.561Z,1.05
2023-03-05T12:06:29.543Z,0.88
2023-03-05T12:09:03.718Z,0.90
2023-03-05T12:11:36.873Z,1.02
2023-03-05T12:14:19.332Z,0.60
2023-03-05T12:16:53.741Z,0.77
2023-03-05T12:19:40.504Z,0.63
2023-03-05T12:22:20.158Z,0.67
2023-03-05T12:24:48.732Z,0.70
2023-03-05T12:27:37.913Z,0.60
2023-03-05T12:30:24.496Z,0.70
2023-03-05T12:32:54.741Z,0.60
2023-03-05T12:35:31.087Z,0.65
2023-03-05T12:38:26.812Z,0.88
2023-03-05T12:41:43.049Z,0.70
2023-03-05T12:44:20.721Z,0.60
2023-03-05T12:47:19.356Z,0.95
2023-03-05T12:49:49.370Z,0.85
2023-03-05T12:52:29.129Z,0.80
2023-03-05T12:55:20.206Z,0.20
2023-03-05T12:57:54.043Z,0.47
2023-03-05T13:00:33.709Z,0.20
2023-03-05T13:03:05.915Z,0.20
2023-03-05T13:05:38.858Z,0.50
2023-03-05T13:08:21.664Z,1.02
2023-03-05T13:10:56.298Z,1.20
2023-03-05T13:13:27.210Z,0.90
2023-03-05T13:15:58.362Z,0.65
2023-03-05T13:18:30.493Z,0.30
2023-03-05T13:21:05.434Z,0.43
2023-03-05T13:23:35.561Z,0.50
2023-03-05T13:26:15.234Z,0.60
2023-03-05T13:28:45.050Z,0.43
2023-03-05T13:31:18.569Z,0.40
2023-03-05T13:33:56.834Z,0.40
2023-03-05T13:36:28.274Z,0.28
2023-03-05T13:38:56.690Z,0.40
2023-03-05T13:41:28.412Z,0.60
2023-03-05T13:43:59.594Z,0.30
2023-03-05T13:46:33.772Z,0.30
2023-03-05T13:49:23.227Z,0.22
2023-03-05T13:51:54.664Z,0.70
2023-03-05T13:54:26.057Z,0.32
2023-03-05T13:56:58.689Z,0.40
2023-03-05T13:59:29.568Z,0.30
2023-03-05T14:02:01.166Z,0.40
2023-03-05T14:04:31.660Z,0.20
2023-03-05T14:07:04.223Z,0.20
2023-03-05T14:09:46.221Z,0.40
2023-03-05T14:12:30.455Z,0.35
2023-03-05T14:14:59.885Z,0.30
2023-03-05T14:17:41.855Z,0.38
2023-03-05T14:20:24.840Z,0.50
2023-03-05T14:22:57.932Z,0.20
2023-03-05T14:25:39.642Z,0.30
2023-03-05T14:28:29.218Z,0.55
2023-03-05T14:30:58.597Z,0.52
2023-03-05T14:33:32.901Z,0.50
2023-03-05T14:36:04.033Z,0.30
2023-03-05T14:38:35.423Z,0.35
2023-03-05T14:41:30.129Z,0.40
2023-03-05T14:43:58.383Z,0.88
2023-03-05T14:46:26.617Z,0.57
2023-03-05T14:48:56.132Z,0.50
2023-03-05T14:51:26.524Z,0.40
2023-03-05T14:53:55.119Z,0.28
2023-03-05T14:56:27.737Z,0.45
2023-03-05T14:58:57.574Z,0.60
2023-03-05T15:01:25.940Z,0.50
2023-03-05T15:03:55.602Z,0.57
2023-03-05T15:06:33.911Z,1.02
2023-03-05T15:09:03.968Z,1.08
2023-03-05T15:11:32.293Z,0.47
2023-03-05T15:14:00.463Z,0.85
2023-03-05T15:16:28.666Z,0.70
2023-03-05T15:18:58.327Z,0.38
2023-03-05T15:21:26.860Z,0.80
2023-03-05T15:23:54.988Z,0.80
2023-03-05T15:26:23.247Z,0.80
2023-03-05T15:28:51.433Z,0.82
2023-03-05T15:31:19.627Z,0.70
2023-03-05T15:33:47.867Z,0.93
2023-03-05T15:36:17.464Z,0.63
2023-03-05T15:38:47.414Z,0.60
2023-03-05T15:41:16.573Z,1.00
2023-03-05T15:43:44.807Z,0.65
2023-03-05T15:46:13.142Z,0.65
2023-03-05T15:48:44.133Z,0.68
2023-03-05T15:51:12.332Z,1.15
2023-03-05T15:53:42.199Z,0.95
2023-03-05T15:56:16.676Z,0.70
2023-03-05T15:58:44.788Z,0.80
2023-03-05T16:01:13.610Z,1.05
2023-03-05T16:03:41.849Z,0.85
2023-03-05T16:06:12.465Z,0.88
2023-03-05T16:08:45.035Z,1.10
2023-03-05T16:11:14.246Z,1.10
2023-03-05T16:13:43.761Z,0.80
2023-03-05T16:16:12.422Z,0.82
2023-03-05T16:18:45.855Z,0.63
2023-03-05T16:21:14.979Z,1.02
2023-03-05T16:23:44.940Z,1.10
2023-03-05T16:26:13.241Z,0.63
2023-03-05T16:28:41.331Z,0.90
2023-03-05T16:31:09.478Z,1.35
2023-03-05T16:33:37.762Z,0.93
2023-03-05T16:36:31.433Z,1.05
2023-03-05T16:39:01.378Z,0.55
2023-03-05T16:41:29.714Z,1.08
2023-03-05T16:43:58.258Z,0.80
2023-03-05T16:46:29.257Z,0.77
2023-03-05T16:48:57.960Z,1.05
2023-03-05T16:51:27.230Z,0.68
2023-03-05T16:53:56.037Z,0.82
2023-03-05T16:56:26.268Z,1.17
2023-03-05T16:58:57.227Z,0.68
2023-03-05T17:01:26.242Z,0.93
2023-03-05T17:03:54.665Z,1.15
2023-03-05T17:06:26.163Z,0.85
2023-03-05T17:08:55.428Z,0.90
2023-03-05T17:11:25.750Z,0.93
2023-03-05T17:13:54.343Z,0.77
2023-03-05T17:16:23.749Z,1.10
2023-03-05T17:18:51.996Z,1.35
2023-03-05T17:21:20.179Z,1.27
2023-03-05T17:23:48.402Z,0.73
2023-03-05T17:26:19.897Z,1.00
2023-03-05T17:28:49.587Z,1.13
2023-03-05T17:31:18.047Z,1.20
2023-03-05T17:33:46.365Z,1.10
2023-03-05T17:36:16.876Z,1.20
2023-03-05T17:38:46.394Z,1.48
2023-03-05T17:41:15.457Z,1.52
2023-03-05T17:43:44.299Z,1.52
2023-03-05T17:46:14.712Z,2.00
2023-03-05T17:48:43.024Z,1.10
2023-03-05T17:51:16.340Z,1.30
2023-03-05T17:53:46.191Z,1.27
2023-03-05T17:56:20.357Z,1.08
2023-03-05T17:58:48.857Z,0.95
2023-03-05T18:01:27.482Z,2.03
2023-03-05T18:03:56.813Z,2.05
2023-03-05T18:06:25.974Z,2.33
2023-03-05T18:08:54.368Z,2.80
2023-03-05T18:11:22.579Z,2.28
2023-03-05T18:13:50.887Z,2.13
2023-03-05T18:16:19.101Z,2.33
2023-03-05T18:18:48.699Z,2.70
2023-03-05T18:21:21.819Z,2.63
2023-03-05T18:23:51.109Z,3.78
2023-03-05T18:26:19.438Z,2.83
2023-03-05T18:28:47.587Z,2.50
2023-03-05T18:31:15.740Z,2.42
2023-03-05T18:33:44.612Z,3.00
2023-03-05T18:36:15.013Z,3.55
2023-03-05T18:38:43.278Z,3.33
2023-03-05T18:41:22.699Z,3.28
2023-03-05T18:43:53.582Z,3.17
2023-03-05T18:46:21.767Z,3.28
2023-03-05T18:48:50.356Z,3.63
2023-03-05T18:51:22.324Z,3.67
2023-03-05T18:53:51.927Z,6.47
2023-03-05T18:56:20.225Z,5.25
2023-03-05T18:58:48.540Z,4.70
2023-03-05T19:01:18.158Z,8.93
2023-03-05T19:03:46.621Z,7.20
2023-03-05T19:06:15.101Z,5.95
2023-03-05T19:08:45.255Z,8.68
2023-03-05T19:11:20.405Z,9.05
2023-03-05T19:13:50.324Z,14.95
2023-03-05T19:16:22.971Z,9.60
2023-03-05T19:19:02.964Z,36.60
2023-03-05T19:21:31.447Z,15.57
2023-03-05T19:24:00.974Z,10.45
2023-03-05T19:26:29.138Z,38.53
2023-03-05T19:28:57.309Z,9.02
2023-03-05T19:31:25.645Z,6.38
2023-03-05T19:33:55.038Z,5.22
2023-03-05T19:36:23.706Z,4.53
2023-03-05T19:38:51.992Z,4.20
2023-03-05T19:41:21.826Z,5.25
2023-03-05T19:43:50.674Z,4.30
2023-03-05T19:46:19.254Z,7.35
2023-03-05T19:48:47.658Z,6.13
2023-03-05T19:51:19.103Z,5.57
2023-03-05T19:53:48.092Z,4.32
2023-03-05T19:56:17.804Z,4.32
2023-03-05T19:58:49.100Z,4.00
2023-03-05T20:01:20.621Z,3.58
2023-03-05T20:03:51.364Z,3.22
2023-03-05T20:06:20.506Z,3.47
2023-03-05T20:08:49.274Z,3.00
2023-03-05T20:11:19.241Z,3.63
2023-03-05T20:13:52.155Z,3.42
2023-03-05T20:16:26.211Z,3.05
2023-03-05T20:18:55.811Z,3.33
2023-03-05T20:21:27.022Z,3.60
2023-03-05T20:23:58.528Z,3.90
2023-03-05T20:26:28.044Z,3.42
2023-03-05T20:28:58.675Z,4.30
2023-03-05T20:31:29.285Z,5.05
2023-03-05T20:33:57.938Z,4.28
2023-03-05T20:36:26.292Z,5.63
2023-03-05T20:38:55.069Z,4.72
2023-03-05T20:41:23.698Z,5.22
2023-03-05T20:43:53.355Z,6.22
2023-03-05T20:46:25.386Z,6.55
2023-03-05T20:48:56.563Z,5.13
2023-03-05T20:51:27.171Z,6.30
2023-03-05T20:53:58.506Z,6.32
2023-03-05T20:56:27.980Z,4.70
2023-03-05T20:58:58.224Z,6.10
2023-03-05T21:01:29.063Z,7.25
2023-03-05T21:03:58.036Z,7.50
2023-03-05T21:06:27.664Z,7.63
2023-03-05T21:08:56.595Z,8.90
2023-03-05T21:11:26.279Z,8.93
2023-03-05T21:13:55.654Z,7.57
2023-03-05T21:16:28.582Z,7.72
2023-03-05T21:18:57.973Z,7.00
2023-03-05T21:21:26.641Z,7.50
2023-03-05T21:23:55.420Z,7.38
2023-03-05T21:26:23.583Z,6.55
2023-03-05T21:28:51.874Z,6.68
2023-03-05T21:31:23.700Z,6.78
2023-03-05T21:33:53.391Z,5.70
2023-03-05T21:36:21.985Z,4.55
2023-03-05T21:38:50.925Z,5.55
2023-03-05T21:41:20.536Z,6.03
2023-03-05T21:43:48.698Z,6.22
2023-03-05T21:46:17.360Z,6.25
2023-03-05T21:48:45.547Z,5.00
2023-03-05T21:51:16.828Z,5.20
2023-03-05T21:53:44.969Z,6.63
2023-03-05T21:56:22.329Z,6.85
2023-03-05T21:58:51.078Z,6.75
2023-03-05T22:01:21.185Z,6.35
2023-03-05T22:03:51.141Z,6.15
2023-03-05T22:06:21.674Z,6.05
2023-03-05T22:08:50.383Z,5.05
2023-03-05T22:11:20.828Z,5.45
2023-03-05T22:13:49.148Z,4.22
2023-03-05T22:16:25.785Z,5.50
2023-03-05T22:18:54.519Z,5.60
2023-03-05T22:21:27.546Z,6.60
2023-03-05T22:23:57.423Z,4.60
2023-03-05T22:26:26.977Z,5.57
2023-03-05T22:28:55.126Z,5.15
2023-03-05T22:31:25.601Z,7.05
2023-03-05T22:33:54.607Z,4.88
2023-03-05T22:36:24.639Z,5.57
2023-03-05T22:38:53.432Z,5.65
2023-03-05T22:41:22.738Z,5.47
2023-03-05T22:43:51.784Z,6.65
2023-03-05T22:46:23.559Z,7.82
2023-03-05T22:48:53.335Z,6.68
2023-03-05T22:51:23.386Z,7.97
2023-03-05T22:53:54.552Z,6.63
2023-03-05T22:56:23.144Z,6.55
2023-03-05T22:58:52.949Z,7.20
2023-03-05T23:01:24.578Z,6.90
2023-03-05T23:03:58.748Z,6.32
2023-03-05T23:06:28.579Z,6.15
2023-03-05T23:08:57.062Z,6.35
2023-03-05T23:11:25.382Z,8.13
2023-03-05T23:13:53.545Z,8.05
2023-03-05T23:16:21.770Z,5.38
2023-03-05T23:18:49.971Z,7.68
2023-03-05T23:21:18.274Z,6.90
2023-03-05T23:23:48.244Z,6.70
2023-03-05T23:26:16.370Z,7.13
2023-03-05T23:28:44.475Z,6.63
2023-03-05T23:31:12.604Z,6.97
2023-03-05T23:33:41.186Z,6.72
2023-03-05T23:36:09.783Z,6.85
2023-03-05T23:38:38.077Z,6.85
2023-03-05T23:41:10.441Z,8.32
2023-03-05T23:43:38.585Z,6.85
2023-03-05T23:46:12.425Z,6.25
2023-03-05T23:48:41.336Z,7.68
2023-03-05T23:51:10.710Z,7.40
2023-03-05T23:53:39.221Z,7.82
2023-03-05T23:56:12.890Z,7.35
2023-03-05T23:58:42.702Z,7.88
